Time;durP1;ratioP1;P1;durP2;ratioP2;P2;SDS_P1;SDS_P2;PMS_P1;PMS_P2;Temp;Humidity;BMP_temperature;BMP_pressure;BME280_temperature;BME280_humidity;BME280_pressure;Samples;Min_cycle;Max_cycle;Signal;HPM_P1;HPM_P2
2022/09/14 00:02:03;;;;;;;;;;;;;;;16.43;90.35;99712.31;5021692;28;1207;-84
2022/09/14 00:04:29;;;;;;;;;;;;;;;16.41;90.21;99708.31;5023006;28;1172;-84
2022/09/14 00:06:54;;;;;;;;;;;;;;;16.38;89.63;99701.50;5032932;28;1942;-83
2022/09/14 00:09:21;;;;;;;;;;;;;;;16.34;90.18;99699.72;5037584;28;1017;-84
2022/09/14 00:11:46;;;;;;;;;;;;;;;16.24;90.81;99698.22;5030998;28;1225;-84
2022/09/14 00:14:12;;;;;;;;;;;;;;;16.18;91.43;99694.03;5027620;28;1330;-83
2022/09/14 00:16:38;;;;;;;;;;;;;;;16.21;91.60;99688.63;5027290;28;1332;-84
2022/09/14 00:19:05;;;;;;;;;;;;;;;16.26;90.85;99693.94;5026492;28;1278;-84
2022/09/14 00:21:31;;;;;;;;;;;;;;;16.27;88.16;99683.72;5022939;28;1212;-84
2022/09/14 00:23:57;;;;;;;;;;;;;;;16.27;89.38;99687.28;5020013;28;1342;-84
2022/09/14 00:26:22;;;;;;;;;;;;;;;16.22;90.73;99681.16;5020781;28;1029;-83
2022/09/14 00:28:49;;;;;;;;;;;;;;;16.21;90.53;99679.56;5019490;28;1901;-84
2022/09/14 00:31:14;;;;;;;;;;;;;;;16.23;90.88;99682.78;5021994;28;922;-84
2022/09/14 00:33:43;;;;;;;;;;;;;;;16.22;90.03;99679.22;5019666;28;1435;-84
2022/09/14 00:36:10;;;;;;;;;;;;;;;16.17;90.73;99679.41;5022040;28;934;-83
2022/09/14 00:38:35;;;;;;;;;;;;;;;16.20;90.24;99677.94;5021383;28;802;-84
2022/09/14 00:41:01;;;;;;;;;;;;;;;16.22;89.77;99681.97;5022469;28;906;-84
2022/09/14 00:43:27;;;;;;;;;;;;;;;16.17;87.26;99681.34;5026565;28;1220;-84
2022/09/14 00:45:52;;;;;;;;;;;;;;;16.26;87.38;99679.34;5022196;28;1319;-83
2022/09/14 00:48:19;;;;;;;;;;;;;;;16.20;88.51;99675.16;5018468;28;1883;-84
2022/09/14 00:50:44;;;;;;;;;;;;;;;16.15;89.02;99673.44;5017136;28;1160;-84
2022/09/14 00:53:09;;;;;;;;;;;;;;;16.11;89.58;99669.72;5018619;28;1213;-84
2022/09/14 00:55:34;;;;;;;;;;;;;;;16.12;89.46;99668.56;5017697;28;1172;-84
2022/09/14 00:58:00;;;;;;;;;;;;;;;16.05;90.00;99662.78;5018545;28;795;-84
2022/09/14 01:00:26;;;;;;;;;;;;;;;16.00;90.60;99657.47;5018675;28;1079;-84
2022/09/14 01:02:52;;;;;;;;;;;;;;;15.96;91.17;99659.28;5017101;28;1239;-84
2022/09/14 01:05:17;;;;;;;;;;;;;;;15.89;91.37;99646.03;5016243;28;1306;-84
2022/09/14 01:07:55;;;;;;;;;;;;;;;15.88;91.63;99647.19;5018379;28;1977;-84
2022/09/14 01:10:36;;;;;;;;;;;;;;;15.87;92.25;99642.81;5018778;28;1025;-84
2022/09/14 01:13:07;;;;;;;;;;;;;;;15.74;91.42;99648.56;5018857;28;1323;-84
2022/09/14 01:15:41;;;;;;;;;;;;;;;15.71;91.41;99657.53;5018715;28;894;-84
2022/09/14 01:18:16;;;;;;;;;;;;;;;15.76;91.78;99654.56;5016755;28;1133;-84
2022/09/14 01:20:55;;;;;;;;;;;;;;;15.78;91.67;99650.34;5018557;28;990;-84
2022/09/14 01:23:26;;;;;;;;;;;;;;;15.77;92.00;99643.19;5016516;28;1370;-84
2022/09/14 01:26:18;;;;;;;;;;;;;;;15.78;92.36;99646.75;5018616;28;910;-84
2022/09/14 01:28:50;;;;;;;;;;;;;;;15.77;92.36;99639.63;4994233;28;1871;-84
2022/09/14 01:31:19;;;;;;;;;;;;;;;15.76;92.10;99632.50;5017728;28;1298;-84
2022/09/14 01:33:50;;;;;;;;;;;;;;;15.71;92.13;99635.47;5017300;28;1308;-84
2022/09/14 01:36:16;;;;;;;;;;;;;;;15.67;92.67;99631.75;5018262;28;1024;-84
2022/09/14 01:38:48;;;;;;;;;;;;;;;15.66;92.94;99621.84;5014541;28;1188;-84
2022/09/14 01:41:15;;;;;;;;;;;;;;;15.65;93.13;99620.25;5017449;28;866;-83
2022/09/14 01:43:45;;;;;;;;;;;;;;;15.53;93.28;99623.69;5016582;28;1283;-85
2022/09/14 01:46:14;;;;;;;;;;;;;;;15.51;92.58;99624.03;5016790;28;1191;-85
2022/09/14 01:48:44;;;;;;;;;;;;;;;15.58;92.31;99614.44;5015804;28;1894;-83
2022/09/14 01:51:12;;;;;;;;;;;;;;;15.65;92.55;99620.25;5014559;28;1351;-84
2022/09/14 01:53:39;;;;;;;;;;;;;;;15.65;92.84;99615.53;5015488;28;1287;-84
2022/09/14 01:56:05;;;;;;;;;;;;;;;15.66;93.22;99621.84;5014982;28;1289;-84
2022/09/14 01:58:49;;;;;;;;;;;;;;;15.60;92.42;99623.19;5015457;28;1389;-84
2022/09/14 02:01:17;;;;;;;;;;;;;;;15.55;93.11;99621.47;5015207;28;1290;-85
2022/09/14 02:03:46;;;;;;;;;;;;;;;15.56;93.48;99619.50;5015121;28;1312;-84
2022/09/14 02:06:14;;;;;;;;;;;;;;;15.57;93.53;99621.13;5014127;28;1639;-84
2022/09/14 02:08:40;;;;;;;;;;;;;;;15.57;93.00;99619.16;5015913;28;1967;-84
2022/09/14 02:11:05;;;;;;;;;;;;;;;15.60;93.84;99624.00;5017991;28;847;-83
2022/09/14 02:13:30;;;;;;;;;;;;;;;15.60;94.15;99617.69;5015788;28;1288;-84
2022/09/14 02:15:55;;;;;;;;;;;;;;;15.56;93.75;99619.50;5017200;28;1108;-84
2022/09/14 02:18:21;;;;;;;;;;;;;;;15.53;93.95;99612.66;5019272;28;1024;-83
2022/09/14 02:20:49;;;;;;;;;;;;;;;15.51;94.21;99604.72;5018695;28;1285;-85
2022/09/14 02:23:15;;;;;;;;;;;;;;;15.52;93.02;99611.06;5018807;28;1194;-83
2022/09/14 02:25:41;;;;;;;;;;;;;;;15.50;93.21;99603.09;5018852;28;1069;-84
2022/09/14 02:28:06;;;;;;;;;;;;;;;15.52;93.26;99600.00;5017895;28;1882;-84
2022/09/14 02:30:36;;;;;;;;;;;;;;;15.51;93.04;99598.41;5019642;28;858;-84
2022/09/14 02:33:11;;;;;;;;;;;;;;;15.47;92.85;99606.56;5020801;28;1178;-84
2022/09/14 02:35:41;;;;;;;;;;;;;;;15.40;93.05;99603.50;5021101;28;798;-84
2022/09/14 02:38:06;;;;;;;;;;;;;;;15.39;92.74;99610.19;5019343;28;1000;-84
2022/09/14 02:40:36;;;;;;;;;;;;;;;15.36;92.53;99602.56;5020658;28;1033;-83
2022/09/14 02:43:04;;;;;;;;;;;;;;;15.38;93.14;99596.72;5021113;28;1233;-83
2022/09/14 02:45:34;;;;;;;;;;;;;;;15.35;93.26;99594.63;5019652;28;839;-84
2022/09/14 02:48:26;;;;;;;;;;;;;;;15.28;93.02;99589.63;5018870;28;1906;-84
2022/09/14 02:51:11;;;;;;;;;;;;;;;15.28;93.66;99577.78;5016179;28;1458;-84
2022/09/14 02:53:41;;;;;;;;;;;;;;;15.33;93.23;99581.16;5021819;23;3538;-86
2022/09/14 02:56:07;;;;;;;;;;;;;;;15.32;93.87;99571.25;4994644;28;1334;-86
2022/09/14 02:58:37;;;;;;;;;;;;;;;15.31;93.98;99568.88;4994441;28;1297;-86
2022/09/14 03:01:04;;;;;;;;;;;;;;;15.30;94.44;99558.97;4994712;28;1168;-85
2022/09/14 03:03:29;;;;;;;;;;;;;;;15.27;93.73;99563.19;4995828;28;1208;-87
2022/09/14 03:05:54;;;;;;;;;;;;;;;15.22;93.67;99563.41;4994581;28;1604;-86
2022/09/14 03:08:20;;;;;;;;;;;;;;;15.18;93.84;99556.94;4994319;28;1976;-86
2022/09/14 03:10:45;;;;;;;;;;;;;;;15.16;93.55;99550.94;4994625;28;1355;-86
2022/09/14 03:13:11;;;;;;;;;;;;;;;15.12;93.98;99545.31;4994426;28;1323;-86
2022/09/14 03:15:36;;;;;;;;;;;;;;;15.14;94.23;99550.50;4994438;28;1348;-86
2022/09/14 03:18:01;;;;;;;;;;;;;;;15.13;94.52;99554.38;4994275;28;989;-86
2022/09/14 03:20:28;;;;;;;;;;;;;;;15.10;94.61;99549.53;4995625;28;989;-86
2022/09/14 03:22:53;;;;;;;;;;;;;;;15.07;94.56;99544.66;4995497;28;1291;-86
2022/09/14 03:25:18;;;;;;;;;;;;;;;15.06;94.58;99548.56;4994548;28;1199;-86
2022/09/14 03:27:48;;;;;;;;;;;;;;;15.05;94.33;99558.00;4993658;28;2396;-86
2022/09/14 03:30:13;;;;;;;;;;;;;;;15.01;94.32;99549.56;5000965;28;1240;-86
2022/09/14 03:32:38;;;;;;;;;;;;;;;15.05;94.24;99546.97;4999017;28;1216;-86
2022/09/14 03:35:04;;;;;;;;;;;;;;;15.03;94.35;99546.50;4994101;28;1067;-86
2022/09/14 03:37:29;;;;;;;;;;;;;;;15.03;93.86;99547.31;4994026;28;1246;-86
2022/09/14 03:39:54;;;;;;;;;;;;;;;14.98;93.86;99539.22;4994116;28;1181;-86
2022/09/14 03:42:19;;;;;;;;;;;;;;;15.00;94.30;99538.88;4995203;28;1206;-86
2022/09/14 03:44:45;;;;;;;;;;;;;;;14.99;94.69;99537.25;4993937;28;680;-87
2022/09/14 03:47:10;;;;;;;;;;;;;;;15.00;94.02;99528.66;4993891;28;1898;-87
2022/09/14 03:49:35;;;;;;;;;;;;;;;14.99;93.80;99526.25;4995182;28;1017;-87
2022/09/14 03:52:00;;;;;;;;;;;;;;;14.92;94.02;99535.03;4993887;28;1183;-87
2022/09/14 03:54:26;;;;;;;;;;;;;;;14.92;93.89;99524.00;4993623;28;1293;-86
2022/09/14 03:56:52;;;;;;;;;;;;;;;14.89;94.21;99530.19;4993609;28;1188;-87
2022/09/14 03:59:17;;;;;;;;;;;;;;;14.92;94.13;99529.53;4993705;28;1349;-87
2022/09/14 04:01:42;;;;;;;;;;;;;;;14.91;94.19;99525.16;4993730;28;1181;-86
2022/09/14 04:04:07;;;;;;;;;;;;;;;14.92;93.68;99524.00;4994835;28;1207;-86
2022/09/14 04:06:32;;;;;;;;;;;;;;;14.85;93.60;99520.97;4994837;28;957;-87
2022/09/14 04:08:58;;;;;;;;;;;;;;;14.86;94.46;99519.84;4993467;28;1975;-87
2022/09/14 04:11:28;;;;;;;;;;;;;;;14.90;94.63;99520.78;4993387;28;1315;-87
2022/09/14 04:13:53;;;;;;;;;;;;;;;14.92;94.39;99517.69;4993486;28;1300;-87
2022/09/14 04:16:19;;;;;;;;;;;;;;;14.91;93.96;99522.41;4993234;28;898;-87
2022/09/14 04:18:45;;;;;;;;;;;;;;;14.93;94.55;99527.59;4993529;28;1334;-86
2022/09/14 04:21:14;;;;;;;;;;;;;;;14.92;94.78;99521.25;4993411;28;1223;-87
2022/09/14 04:23:40;;;;;;;;;;;;;;;14.91;94.79;99522.41;4993336;28;1432;-86
2022/09/14 04:26:09;;;;;;;;;;;;;;;14.90;95.03;99514.47;4993273;28;1292;-86
2022/09/14 04:28:34;;;;;;;;;;;;;;;14.92;95.26;99517.69;4993225;28;1898;-86
2022/09/14 04:31:00;;;;;;;;;;;;;;;14.92;94.55;99524.00;4993139;28;1213;-87
2022/09/14 04:33:28;;;;;;;;;;;;;;;14.95;94.00;99523.38;4994452;28;1320;-87
2022/09/14 04:36:00;;;;;;;;;;;;;;;14.93;94.84;99517.38;4993098;28;1170;-86
2022/09/14 04:38:26;;;;;;;;;;;;;;;14.93;95.05;99525.63;4992349;28;1292;-86
2022/09/14 04:40:51;;;;;;;;;;;;;;;14.91;94.86;99530.66;4992652;28;1215;-85
2022/09/14 04:43:17;;;;;;;;;;;;;;;14.90;94.76;99526.28;4991845;28;1201;-86
2022/09/14 04:45:42;;;;;;;;;;;;;;;14.89;95.12;99527.44;4992803;28;1260;-87
2022/09/14 04:48:07;;;;;;;;;;;;;;;14.87;94.93;99523.41;4994113;28;1902;-86
2022/09/14 04:50:32;;;;;;;;;;;;;;;14.87;95.85;99523.41;4992999;28;1330;-86
2022/09/14 04:52:57;;;;;;;;;;;;;;;14.85;95.47;99518.22;4992745;28;1284;-86
2022/09/14 04:55:23;;;;;;;;;;;;;;;14.84;94.76;99513.84;4992765;28;1043;-86
2022/09/14 04:57:49;;;;;;;;;;;;;;;14.85;94.88;99514.66;4993927;28;959;-86
2022/09/14 05:00:14;;;;;;;;;;;;;;;14.84;95.61;99504.78;4992590;28;1375;-86
2022/09/14 05:02:40;;;;;;;;;;;;;;;14.83;95.27;99508.66;4993948;28;1192;-86
2022/09/14 05:05:05;;;;;;;;;;;;;;;14.79;94.68;99508.53;4992673;28;1299;-86
2022/09/14 05:07:31;;;;;;;;;;;;;;;14.80;94.74;99515.66;4992673;28;1894;-86
2022/09/14 05:09:56;;;;;;;;;;;;;;;14.80;95.28;99510.13;4992775;28;839;-86
2022/09/14 05:12:21;;;;;;;;;;;;;;;14.81;95.82;99513.69;4992623;28;1278;-86
2022/09/14 05:14:46;;;;;;;;;;;;;;;14.75;94.89;99508.38;4993556;28;830;-87
2022/09/14 05:17:11;;;;;;;;;;;;;;;14.77;94.99;99505.31;4993572;28;807;-86
2022/09/14 05:19:36;;;;;;;;;;;;;;;14.77;95.46;99508.88;4992556;28;1014;-86
2022/09/14 05:22:02;;;;;;;;;;;;;;;14.77;95.30;99505.31;4993539;28;925;-86
2022/09/14 05:24:27;;;;;;;;;;;;;;;14.80;95.76;99507.38;4993726;28;1194;-86
2022/09/14 05:26:53;;;;;;;;;;;;;;;14.77;95.64;99506.13;4992339;28;831;-86
2022/09/14 05:29:18;;;;;;;;;;;;;;;14.81;96.38;99510.94;4993529;28;1890;-86
2022/09/14 05:31:43;;;;;;;;;;;;;;;14.72;95.69;99506.28;4992457;28;1303;-86
2022/09/14 05:34:09;;;;;;;;;;;;;;;14.75;95.80;99499.31;4992477;28;1296;-86
2022/09/14 05:36:35;;;;;;;;;;;;;;;14.76;96.24;99504.50;4993526;28;863;-86
2022/09/14 05:39:00;;;;;;;;;;;;;;;14.76;95.88;99500.94;4992481;28;1284;-86
2022/09/14 05:41:25;;;;;;;;;;;;;;;14.74;96.46;99509.53;4992337;28;1014;-86
2022/09/14 05:43:50;;;;;;;;;;;;;;;14.71;96.34;99504.69;4993618;28;1164;-86
2022/09/14 05:46:18;;;;;;;;;;;;;;;14.75;95.92;99502.88;4992459;28;850;-86
2022/09/14 05:48:44;;;;;;;;;;;;;;;14.80;96.49;99493.59;4992338;28;1891;-86
2022/09/14 05:51:10;;;;;;;;;;;;;;;14.83;96.21;99500.41;4994850;28;1312;-86
2022/09/14 05:53:35;;;;;;;;;;;;;;;14.83;96.18;99503.16;4997068;28;1263;-86
2022/09/14 05:56:02;;;;;;;;;;;;;;;14.86;95.54;99505.25;4997101;28;1350;-87
2022/09/14 05:58:27;;;;;;;;;;;;;;;14.87;95.40;99502.19;4997312;28;913;-86
2022/09/14 06:00:52;;;;;;;;;;;;;;;14.87;95.36;99499.44;4997290;28;898;-86
2022/09/14 06:03:17;;;;;;;;;;;;;;;14.89;95.97;99497.13;4995724;28;1306;-86
2022/09/14 06:05:42;;;;;;;;;;;;;;;14.90;94.84;99503.44;4997045;28;1006;-86
2022/09/14 06:08:08;;;;;;;;;;;;;;;14.92;95.45;99493.72;4996812;28;1963;-86
2022/09/14 06:10:33;;;;;;;;;;;;;;;14.95;96.18;99492.25;4995695;28;824;-86
2022/09/14 06:12:58;;;;;;;;;;;;;;;14.97;96.21;99495.47;4995340;28;1411;-86
2022/09/14 06:15:23;;;;;;;;;;;;;;;14.95;95.48;99492.25;4995749;28;1178;-86
2022/09/14 06:17:49;;;;;;;;;;;;;;;14.94;94.95;99485.13;4995305;28;1065;-86
2022/09/14 06:20:14;;;;;;;;;;;;;;;14.93;95.01;99491.75;4995274;28;1094;-86
2022/09/14 06:22:39;;;;;;;;;;;;;;;14.97;95.50;99484.47;4995664;28;1219;-86
2022/09/14 06:25:04;;;;;;;;;;;;;;;14.96;96.00;99494.66;4996723;28;1052;-86
2022/09/14 06:27:29;;;;;;;;;;;;;;;14.96;94.49;99488.34;4996479;28;1924;-86
2022/09/14 06:29:55;;;;;;;;;;;;;;;14.99;94.96;99493.16;4995497;28;1038;-87
2022/09/14 06:32:22;;;;;;;;;;;;;;;15.00;93.15;99486.53;5004733;28;1287;-86
2022/09/14 06:34:47;;;;;;;;;;;;;;;15.02;93.01;99489.75;4996367;28;893;-87
2022/09/14 06:37:12;;;;;;;;;;;;;;;15.01;92.30;99488.13;4995095;28;1168;-86
2022/09/14 06:39:37;;;;;;;;;;;;;;;15.01;92.83;99491.69;4995448;28;965;-86
2022/09/14 06:42:02;;;;;;;;;;;;;;;15.01;93.64;99493.66;4995281;28;1252;-86
2022/09/14 06:44:27;;;;;;;;;;;;;;;15.02;93.50;99496.06;4996188;28;1383;-86
2022/09/14 06:46:53;;;;;;;;;;;;;;;15.02;93.71;99490.56;4994918;28;906;-86
2022/09/14 06:49:21;;;;;;;;;;;;;;;15.06;93.59;99485.19;4996185;28;1886;-86
2022/09/14 06:51:47;;;;;;;;;;;;;;;15.06;93.03;99485.97;4996202;28;847;-86
2022/09/14 06:54:14;;;;;;;;;;;;;;;15.09;93.03;99487.28;4994873;28;1331;-86
2022/09/14 06:56:40;;;;;;;;;;;;;;;15.12;92.67;99489.38;4994752;28;1247;-86
2022/09/14 06:59:05;;;;;;;;;;;;;;;15.12;93.42;99481.91;4995912;28;1083;-86
2022/09/14 07:01:31;;;;;;;;;;;;;;;15.11;94.17;99485.81;4995190;28;1100;-86
2022/09/14 07:03:57;;;;;;;;;;;;;;;15.10;93.65;99488.88;4994490;28;1309;-86
2022/09/14 07:06:23;;;;;;;;;;;;;;;15.08;93.29;99491.97;4995825;28;847;-86
2022/09/14 07:08:49;;;;;;;;;;;;;;;15.08;93.16;99494.72;4994664;28;2062;-86
2022/09/14 07:11:16;;;;;;;;;;;;;;;15.10;93.47;99509.00;4994689;28;1280;-86
2022/09/14 07:13:41;;;;;;;;;;;;;;;15.10;94.51;99499.91;4994780;28;1419;-86
2022/09/14 07:16:07;;;;;;;;;;;;;;;15.09;94.36;99490.84;4995749;28;783;-86
2022/09/14 07:18:32;;;;;;;;;;;;;;;15.10;94.58;99491.66;4995824;28;827;-86
2022/09/14 07:21:11;;;;;;;;;;;;;;;15.09;93.98;99492.78;4994575;28;1231;-86
2022/09/14 07:23:37;;;;;;;;;;;;;;;15.06;94.12;99497.00;4995671;28;1161;-86
2022/09/14 07:26:07;;;;;;;;;;;;;;;15.03;93.62;99483.91;4994181;28;1100;-86
2022/09/14 07:28:32;;;;;;;;;;;;;;;15.05;93.66;99483.59;4995369;28;1902;-86
2022/09/14 07:30:58;;;;;;;;;;;;;;;15.04;94.44;99476.47;4995379;28;1058;-86
2022/09/14 07:33:23;;;;;;;;;;;;;;;15.04;94.04;99485.53;4994084;28;1274;-86
2022/09/14 07:35:48;;;;;;;;;;;;;;;15.02;93.32;99476.78;4993852;28;1358;-87
2022/09/14 07:38:13;;;;;;;;;;;;;;;15.02;93.56;99481.50;4994075;28;1202;-86
2022/09/14 07:40:38;;;;;;;;;;;;;;;15.00;93.86;99478.25;4994124;28;910;-86
2022/09/14 07:43:05;;;;;;;;;;;;;;;14.99;93.84;99485.72;4993852;28;1237;-85
2022/09/14 07:45:30;;;;;;;;;;;;;;;15.00;94.96;99492.03;4993900;28;1345;-86
2022/09/14 07:47:55;;;;;;;;;;;;;;;14.96;95.14;99488.34;4994861;28;1890;-86
2022/09/14 07:50:20;;;;;;;;;;;;;;;14.92;96.33;99493.72;4995067;28;1029;-87
2022/09/14 07:52:48;;;;;;;;;;;;;;;14.93;95.50;99495.31;4993605;28;1311;-86
2022/09/14 07:55:13;;;;;;;;;;;;;;;14.96;95.60;99494.66;4993736;28;1152;-86
2022/09/14 07:57:38;;;;;;;;;;;;;;;14.98;96.24;99500.63;4994713;28;859;-86
2022/09/14 08:00:04;;;;;;;;;;;;;;;15.00;95.51;99489.28;4993827;28;1200;-86
2022/09/14 08:02:29;;;;;;;;;;;;;;;15.03;94.86;99492.19;4994831;28;1224;-86
2022/09/14 08:04:54;;;;;;;;;;;;;;;15.07;94.83;99489.56;4993646;28;1256;-87
2022/09/14 08:07:20;;;;;;;;;;;;;;;15.11;95.38;99485.00;4993179;28;1961;-86
2022/09/14 08:09:45;;;;;;;;;;;;;;;15.10;95.43;99480.63;4993458;28;1104;-86
2022/09/14 08:12:11;;;;;;;;;;;;;;;15.12;95.92;99472.84;4994762;28;962;-86
2022/09/14 08:14:36;;;;;;;;;;;;;;;15.18;95.79;99476.19;4993208;28;1337;-86
2022/09/14 08:17:01;;;;;;;;;;;;;;;15.21;95.46;99468.06;4993088;28;1073;-86
2022/09/14 08:19:27;;;;;;;;;;;;;;;15.23;94.81;99474.03;4993251;28;1228;-86
2022/09/14 08:21:52;;;;;;;;;;;;;;;15.22;94.83;99474.38;4993517;28;1240;-86
2022/09/14 08:24:19;;;;;;;;;;;;;;;15.20;94.95;99471.97;4994436;28;1264;-86
2022/09/14 08:26:45;;;;;;;;;;;;;;;15.20;94.43;99471.97;4993216;28;1331;-86
2022/09/14 08:29:11;;;;;;;;;;;;;;;15.26;93.98;99473.38;4993054;28;1894;-86
2022/09/14 08:31:37;;;;;;;;;;;;;;;15.35;93.70;99470.53;4993138;28;1213;-86
2022/09/14 08:34:03;;;;;;;;;;;;;;;15.41;92.32;99478.25;4992954;28;1568;-86
2022/09/14 08:36:30;;;;;;;;;;;;;;;15.46;93.18;99480.03;4992938;28;1290;-86
2022/09/14 08:38:55;;;;;;;;;;;;;;;15.45;91.02;99473.69;4993018;28;1244;-86
2022/09/14 08:41:28;;;;;;;;;;;;;;;15.46;90.21;99478.06;4993029;28;1347;-86
2022/09/14 08:43:54;;;;;;;;;;;;;;;15.48;89.13;99481.28;4994057;28;1299;-86
2022/09/14 08:46:28;;;;;;;;;;;;;;;15.48;88.72;99484.03;4992791;28;1228;-86
2022/09/14 08:48:54;;;;;;;;;;;;;;;15.48;87.27;99480.50;4993020;28;1894;-86
2022/09/14 08:51:19;;;;;;;;;;;;;;;15.50;87.46;99473.47;4993015;28;1403;-86
2022/09/14 08:53:45;;;;;;;;;;;;;;;15.55;87.48;99467.00;4994011;28;1290;-86
2022/09/14 08:56:17;;;;;;;;;;;;;;;15.61;88.02;99471.16;4992548;28;1285;-86
2022/09/14 08:59:05;;;;;;;;;;;;;;;15.66;88.06;99470.13;4994018;28;1041;-86
2022/09/14 09:01:36;;;;;;;;;;;;;;;15.69;88.62;99463.94;4992912;28;1298;-86
2022/09/14 09:04:14;;;;;;;;;;;;;;;15.69;88.92;99466.69;4994150;28;1230;-86
2022/09/14 09:06:42;;;;;;;;;;;;;;;15.67;88.38;99477.25;4993185;28;1162;-86
2022/09/14 09:09:13;;;;;;;;;;;;;;;15.65;88.08;99476.81;4993921;28;1970;-86
2022/09/14 09:11:40;;;;;;;;;;;;;;;15.65;89.13;99483.09;4992601;28;1173;-86
2022/09/14 09:14:13;;;;;;;;;;;;;;;15.67;88.65;99478.06;4993804;28;1260;-86
2022/09/14 09:16:38;;;;;;;;;;;;;;;15.66;88.38;99481.97;4992318;28;1181;-86
2022/09/14 09:19:06;;;;;;;;;;;;;;;15.65;88.02;99483.09;4992773;28;989;-86
2022/09/14 09:21:34;;;;;;;;;;;;;;;15.66;87.96;99476.44;4992722;28;1210;-86
2022/09/14 09:24:07;;;;;;;;;;;;;;;15.66;89.41;99476.44;4992536;28;1220;-86
2022/09/14 09:26:32;;;;;;;;;;;;;;;15.66;90.28;99470.13;4995942;28;1331;-86
2022/09/14 09:28:58;;;;;;;;;;;;;;;15.64;89.82;99472.44;4996615;28;1976;-86
2022/09/14 09:31:34;;;;;;;;;;;;;;;15.62;89.60;99472.75;4998054;28;883;-86
2022/09/14 09:33:59;;;;;;;;;;;;;;;15.64;89.68;99464.16;5003345;28;1207;-86
2022/09/14 09:36:25;;;;;;;;;;;;;;;15.70;90.47;99460.03;4996516;28;1325;-86
2022/09/14 09:38:50;;;;;;;;;;;;;;;15.72;90.72;99442.00;4996374;28;1185;-86
2022/09/14 09:41:23;;;;;;;;;;;;;;;15.75;90.98;99446.00;4996342;28;771;-86
2022/09/14 09:44:08;;;;;;;;;;;;;;;15.74;90.59;99445.19;4997560;28;1270;-86
2022/09/14 09:46:34;;;;;;;;;;;;;;;15.73;90.18;99451.91;4995922;28;1294;-86
2022/09/14 09:49:04;;;;;;;;;;;;;;;15.67;89.91;99447.72;4997328;28;1983;-86
2022/09/14 09:51:30;;;;;;;;;;;;;;;15.66;90.00;99451.63;4996295;28;1339;-86
2022/09/14 09:54:07;;;;;;;;;;;;;;;15.68;89.46;99446.56;4995923;28;1244;-86
2022/09/14 09:56:36;;;;;;;;;;;;;;;15.69;89.69;99447.38;4995852;28;1228;-86
2022/09/14 09:59:01;;;;;;;;;;;;;;;15.74;90.39;99447.97;4997216;28;1100;-86
2022/09/14 10:01:28;;;;;;;;;;;;;;;15.77;90.38;99452.00;4997308;28;962;-86
2022/09/14 10:03:59;;;;;;;;;;;;;;;15.80;89.54;99448.56;4997207;28;1281;-86
2022/09/14 10:06:24;;;;;;;;;;;;;;;15.77;89.10;99449.25;4996905;28;807;-86
2022/09/14 10:08:50;;;;;;;;;;;;;;;15.80;88.11;99443.06;4996864;28;1961;-86
2022/09/14 10:11:27;;;;;;;;;;;;;;;15.74;87.97;99447.97;4995681;28;1298;-86
2022/09/14 10:13:52;;;;;;;;;;;;;;;15.75;87.51;99452.34;4997085;28;1180;-86
2022/09/14 10:16:18;;;;;;;;;;;;;;;15.76;87.82;99453.16;4995467;28;1181;-86
2022/09/14 10:18:48;;;;;;;;;;;;;;;15.78;87.98;99448.91;4995796;28;1410;-86
2022/09/14 10:21:14;;;;;;;;;;;;;;;15.79;87.73;99458.00;4995735;28;1212;-86
2022/09/14 10:23:40;;;;;;;;;;;;;;;15.80;87.00;99454.09;4996766;28;1196;-86
2022/09/14 10:26:11;;;;;;;;;;;;;;;15.80;86.67;99448.56;4995287;28;1300;-86
2022/09/14 10:28:37;;;;;;;;;;;;;;;15.79;86.24;99458.00;4995344;28;1971;-86
2022/09/14 10:31:02;;;;;;;;;;;;;;;15.74;85.90;99447.97;4995416;28;1177;-86
2022/09/14 10:33:28;;;;;;;;;;;;;;;15.74;85.91;99452.66;4995178;28;1394;-87
2022/09/14 10:36:00;;;;;;;;;;;;;;;15.72;86.76;99461.31;4994596;28;1216;-87
2022/09/14 10:38:32;;;;;;;;;;;;;;;15.70;87.51;99452.56;4994556;28;1286;-87
2022/09/14 10:41:03;;;;;;;;;;;;;;;15.67;87.31;99453.22;4995208;28;1187;-86
2022/09/14 10:43:52;;;;;;;;;;;;;;;15.65;87.18;99461.03;4996571;28;1315;-86
2022/09/14 10:46:19;;;;;;;;;;;;;;;15.65;87.34;99449.22;4996203;28;882;-86
2022/09/14 10:48:52;;;;;;;;;;;;;;;15.65;88.61;99449.22;4996260;28;1886;-86
2022/09/14 10:51:36;;;;;;;;;;;;;;;15.64;88.38;99447.59;4995453;28;1291;-86
2022/09/14 10:54:09;;;;;;;;;;;;;;;15.65;88.05;99438.97;4996049;28;1272;-86
2022/09/14 10:56:45;;;;;;;;;;;;;;;15.67;88.67;99430.34;4994757;28;1370;-86
2022/09/14 10:59:23;;;;;;;;;;;;;;;15.70;89.58;99429.69;4994995;28;1187;-86
2022/09/14 11:01:48;;;;;;;;;;;;;;;15.70;89.22;99430.50;4994877;28;1223;-86
2022/09/14 11:04:22;;;;;;;;;;;;;;;15.71;89.34;99428.53;4996285;28;1181;-86
2022/09/14 11:06:50;;;;;;;;;;;;;;;15.72;89.37;99430.16;4995063;28;1179;-86
2022/09/14 11:09:20;;;;;;;;;;;;;;;15.72;90.46;99422.69;4994657;28;1965;-86
2022/09/14 11:11:48;;;;;;;;;;;;;;;15.73;91.38;99434.53;4996444;28;827;-86
2022/09/14 11:14:25;;;;;;;;;;;;;;;15.72;91.99;99432.91;4994523;28;1308;-86
2022/09/14 11:16:53;;;;;;;;;;;;;;;15.69;92.12;99426.13;4994331;28;1300;-86
2022/09/14 11:19:28;;;;;;;;;;;;;;;15.66;92.48;99428.75;4993626;28;1269;-86
2022/09/14 11:22:02;;;;;;;;;;;;;;;15.58;92.62;99427.69;4994392;28;1304;-86
2022/09/14 11:24:34;;;;;;;;;;;;;;;15.58;91.25;99427.69;4994978;28;1339;-86
2022/09/14 11:27:01;;;;;;;;;;;;;;;15.60;90.98;99417.13;4992689;28;1288;-86
2022/09/14 11:29:26;;;;;;;;;;;;;;;15.62;91.97;99427.81;4990702;28;1887;-86
2022/09/14 11:31:52;;;;;;;;;;;;;;;15.60;92.86;99425.41;4993016;28;1318;-86
2022/09/14 11:34:29;;;;;;;;;;;;;;;15.56;92.67;99427.25;4994181;28;1280;-86
2022/09/14 11:37:04;;;;;;;;;;;;;;;15.52;92.93;99432.59;4991151;28;1450;-86
2022/09/14 11:39:32;;;;;;;;;;;;;;;15.49;92.58;99430.50;4990926;28;1328;-86
2022/09/14 11:41:57;;;;;;;;;;;;;;;15.46;93.41;99431.19;4994718;28;1186;-86
2022/09/14 11:44:25;;;;;;;;;;;;;;;15.44;93.27;99430.72;4995268;28;1316;-86
2022/09/14 11:46:55;;;;;;;;;;;;;;;15.42;93.88;99430.25;4995256;28;1258;-86
2022/09/14 11:49:23;;;;;;;;;;;;;;;15.46;94.71;99420.16;4994898;28;1975;-86
2022/09/14 11:51:57;;;;;;;;;;;;;;;15.46;95.11;99422.09;4994966;28;1237;-86
2022/09/14 11:54:23;;;;;;;;;;;;;;;15.44;94.91;99422.44;4993652;28;1246;-86
2022/09/14 11:56:50;;;;;;;;;;;;;;;15.40;96.36;99424.25;4994072;28;1222;-86
2022/09/14 11:59:33;;;;;;;;;;;;;;;15.39;97.13;99428.19;4995922;28;792;-86
2022/09/14 12:02:18;;;;;;;;;;;;;;;15.36;97.75;99433.56;4996167;28;891;-86
2022/09/14 12:05:15;;;;;;;;;;;;;;;15.31;98.26;99428.25;4995601;28;1200;-86
2022/09/14 12:07:44;;;;;;;;;;;;;;;15.32;98.19;99429.84;4984872;28;1957;-86
2022/09/14 12:10:12;;;;;;;;;;;;;;;15.31;98.68;99420.75;4997708;28;878;-86
2022/09/14 12:12:37;;;;;;;;;;;;;;;15.36;98.43;99419.75;4997515;28;1315;-85
2022/09/14 12:15:10;;;;;;;;;;;;;;;15.36;97.26;99420.56;4997461;28;843;-86
2022/09/14 12:17:35;;;;;;;;;;;;;;;15.25;95.60;99422.13;4996529;28;1343;-86
2022/09/14 12:20:20;;;;;;;;;;;;;;;15.20;96.37;99419.59;4996629;28;1291;-85
2022/09/14 12:22:45;;;;;;;;;;;;;;;15.13;95.99;99430.34;4998224;28;1315;-85
2022/09/14 12:25:10;;;;;;;;;;;;;;;15.11;96.02;99432.63;4996839;28;1276;-86
2022/09/14 12:27:37;;;;;;;;;;;;;;;15.04;96.75;99433.19;4998233;28;1955;-86
2022/09/14 12:30:22;;;;;;;;;;;;;;;15.18;97.15;99421.88;4997350;28;1262;-86
2022/09/14 12:32:47;;;;;;;;;;;;;;;15.22;96.53;99417.31;4998216;28;1209;-86
2022/09/14 12:35:31;;;;;;;;;;;;;;;15.25;96.53;99413.84;4996784;28;1290;-86
2022/09/14 12:37:56;;;;;;;;;;;;;;;15.24;96.20;99423.25;4996214;28;1302;-86
2022/09/14 12:40:27;;;;;;;;;;;;;;;15.27;96.71;99425.34;4996750;28;971;-86
2022/09/14 12:42:53;;;;;;;;;;;;;;;15.30;96.80;99424.69;4995807;28;1204;-86
2022/09/14 12:45:38;;;;;;;;;;;;;;;15.34;97.14;99419.28;4995439;28;1415;-86
2022/09/14 12:48:06;;;;;;;;;;;;;;;15.33;96.86;99420.44;4996337;28;1867;-86
2022/09/14 12:50:33;;;;;;;;;;;;;;;15.33;97.74;99409.41;4995719;28;1344;-85
2022/09/14 12:53:12;;;;;;;;;;;;;;;15.27;97.61;99406.06;4997278;28;1208;-85
2022/09/14 12:55:43;;;;;;;;;;;;;;;15.32;97.74;99408.59;4994859;28;1218;-86
2022/09/14 12:58:21;;;;;;;;;;;;;;;15.34;97.82;99405.50;4996030;28;807;-86
2022/09/14 13:00:53;;;;;;;;;;;;;;;15.37;97.95;99402.06;4994597;28;1323;-86
2022/09/14 13:03:29;;;;;;;;;;;;;;;15.36;97.77;99401.28;4995267;28;1280;-85